createdAt,value
2022-09-18T00:01:39.025Z,18.94
2022-09-18T00:04:09.430Z,19.33
2022-09-18T00:06:43.206Z,19.10
2022-09-18T00:09:14.885Z,19.06
2022-09-18T00:11:47.102Z,18.88
2022-09-18T00:14:20.587Z,19.07
2022-09-18T00:16:49.763Z,18.73
2022-09-18T00:19:18.979Z,18.78
2022-09-18T00:21:50.652Z,18.53
2022-09-18T00:24:19.227Z,18.35
2022-09-18T00:26:48.383Z,18.28
2022-09-18T00:29:17.986Z,18.34
2022-09-18T00:31:46.201Z,18.50
2022-09-18T00:34:15.807Z,18.61
2022-09-18T00:36:44.149Z,18.63
2022-09-18T00:39:12.959Z,18.68
2022-09-18T00:41:42.975Z,18.54
2022-09-18T00:44:43.020Z,18.54
2022-09-18T00:47:11.187Z,18.59
2022-09-18T00:50:15.146Z,18.61
2022-09-18T00:53:03.650Z,18.54
2022-09-18T00:55:38.246Z,18.48
2022-09-18T00:58:06.691Z,18.48
2022-09-18T01:00:34.779Z,18.57
2022-09-18T01:03:02.767Z,18.64
2022-09-18T01:05:57.313Z,18.62
2022-09-18T01:08:46.094Z,18.58
2022-09-18T01:11:35.233Z,18.66
2022-09-18T01:14:20.493Z,18.69
2022-09-18T01:17:12.910Z,18.78
2022-09-18T01:20:10.478Z,18.78
2022-09-18T01:22:40.713Z,18.67
2022-09-18T01:25:20.996Z,18.67
2022-09-18T01:28:38.240Z,18.69
2022-09-18T01:31:21.733Z,18.63
2022-09-18T01:34:00.427Z,18.61
2022-09-18T01:36:34.781Z,18.74
2022-09-18T01:39:28.903Z,18.89
2022-09-18T01:41:58.544Z,18.84
2022-09-18T01:44:31.316Z,18.76
2022-09-18T01:47:06.634Z,18.67
2022-09-18T01:49:44.120Z,18.64
2022-09-18T01:52:36.790Z,18.68
2022-09-18T01:55:10.092Z,18.60
2022-09-18T01:58:10.335Z,18.50
2022-09-18T02:00:43.396Z,18.65
2022-09-18T02:03:26.735Z,18.64
2022-09-18T02:06:00.260Z,18.53
2022-09-18T02:08:34.217Z,18.63
2022-09-18T02:11:17.365Z,18.60
2022-09-18T02:13:55.187Z,18.56
2022-09-18T02:16:42.887Z,18.61
2022-09-18T02:19:18.739Z,18.57
2022-09-18T02:21:49.397Z,18.48
2022-09-18T02:24:21.851Z,18.56
2022-09-18T02:26:51.964Z,18.46
2022-09-18T02:29:23.830Z,18.57
2022-09-18T02:31:52.080Z,18.53
2022-09-18T02:34:21.483Z,18.53
2022-09-18T02:37:40.873Z,18.30
2022-09-18T02:40:21.217Z,18.16
2022-09-18T02:43:25.149Z,18.09
2022-09-18T02:46:29.721Z,17.78
2022-09-18T02:49:41.866Z,17.70
2022-09-18T02:52:26.016Z,17.73
2022-09-18T02:55:09.052Z,17.73
2022-09-18T02:57:43.120Z,17.79
2022-09-18T03:00:17.081Z,17.79
2022-09-18T03:02:47.802Z,17.74
2022-09-18T03:05:20.811Z,17.82
2022-09-18T03:07:55.037Z,17.60
2022-09-18T03:10:22.742Z,17.69
2022-09-18T03:12:50.309Z,17.60
2022-09-18T03:15:18.148Z,17.52
2022-09-18T03:17:45.653Z,17.51
2022-09-18T03:20:13.122Z,17.51
2022-09-18T03:22:40.550Z,17.59
2022-09-18T03:25:11.904Z,17.65
2022-09-18T03:27:39.450Z,17.83
2022-09-18T03:30:07.789Z,17.88
2022-09-18T03:32:35.425Z,17.97
2022-09-18T03:35:02.862Z,18.11
2022-09-18T03:37:30.329Z,17.90
2022-09-18T03:39:59.506Z,17.56
2022-09-18T03:42:27.078Z,18.03
2022-09-18T03:44:54.524Z,17.67
2022-09-18T03:47:30.101Z,17.92
2022-09-18T03:50:00.552Z,17.93
2022-09-18T03:52:31.127Z,17.43
2022-09-18T03:55:07.509Z,17.56
2022-09-18T03:58:04.301Z,17.24
2022-09-18T04:00:49.417Z,17.41
2022-09-18T04:03:25.531Z,17.40
2022-09-18T04:06:22.528Z,17.47
2022-09-18T04:09:11.754Z,17.63
2022-09-18T04:11:46.573Z,17.75
2022-09-18T04:14:14.833Z,17.90
2022-09-18T04:16:42.318Z,17.50
2022-09-18T04:19:09.901Z,17.19
2022-09-18T04:21:39.888Z,17.07
2022-09-18T04:24:07.458Z,16.92
2022-09-18T04:26:37.508Z,16.53
2022-09-18T04:29:05.993Z,16.52
2022-09-18T04:31:35.459Z,16.55
2022-09-18T04:34:08.319Z,16.72
2022-09-18T04:36:36.233Z,16.38
2022-09-18T04:39:04.959Z,16.42
2022-09-18T04:41:32.704Z,16.37
2022-09-18T04:44:00.433Z,16.21
2022-09-18T04:46:28.091Z,16.31
2022-09-18T04:48:55.573Z,16.15
2022-09-18T04:51:26.048Z,16.24
2022-09-18T04:53:53.614Z,16.37
2022-09-18T04:56:21.119Z,16.55
2022-09-18T04:58:51.504Z,16.42
2022-09-18T05:01:19.403Z,16.51
2022-09-18T05:03:47.243Z,16.40
2022-09-18T05:06:24.357Z,16.38
2022-09-18T05:08:52.685Z,16.11
2022-09-18T05:11:20.792Z,16.01
2022-09-18T05:13:56.551Z,16.12
2022-09-18T05:16:25.380Z,16.01
2022-09-18T05:19:15.750Z,16.09
2022-09-18T05:21:43.287Z,15.81
2022-09-18T05:24:13.350Z,15.86
2022-09-18T05:26:42.169Z,15.87
2022-09-18T05:29:09.690Z,15.73
2022-09-18T05:31:37.497Z,15.76
2022-09-18T05:34:05.162Z,15.73
2022-09-18T05:36:32.655Z,15.71
2022-09-18T05:39:00.730Z,15.64
2022-09-18T05:41:32.036Z,15.61
2022-09-18T05:44:02.822Z,15.49
2022-09-18T05:46:31.978Z,15.52
2022-09-18T05:49:01.823Z,15.51
2022-09-18T05:51:29.287Z,15.69
2022-09-18T05:53:57.532Z,15.70
2022-09-18T05:56:31.193Z,15.69
2022-09-18T05:58:59.735Z,15.63
2022-09-18T06:01:31.116Z,15.79
2022-09-18T06:04:20.725Z,15.81
2022-09-18T06:07:16.235Z,15.83
2022-09-18T06:09:44.140Z,15.92
2022-09-18T06:12:12.533Z,16.07
2022-09-18T06:14:39.992Z,16.03
2022-09-18T06:17:07.562Z,16.17
2022-09-18T06:19:35.673Z,15.97
2022-09-18T06:22:03.187Z,15.81
2022-09-18T06:24:30.661Z,15.82
2022-09-18T06:27:06.142Z,15.74
2022-09-18T06:29:33.692Z,15.67
2022-09-18T06:32:08.725Z,15.87
2022-09-18T06:34:38.937Z,15.94
2022-09-18T06:37:11.846Z,15.86
2022-09-18T06:39:42.037Z,15.78
2022-09-18T06:42:13.860Z,15.80
2022-09-18T06:44:48.485Z,15.69
2022-09-18T06:47:17.535Z,15.90
2022-09-18T06:49:47.159Z,15.86
2022-09-18T06:52:17.286Z,16.00
2022-09-18T06:54:44.818Z,16.09
2022-09-18T06:57:25.287Z,16.01
2022-09-18T06:59:52.902Z,16.01
2022-09-18T07:02:20.458Z,16.15
2022-09-18T07:04:54.939Z,16.07
2022-09-18T07:07:22.508Z,16.11
2022-09-18T07:09:51.538Z,16.32
2022-09-18T07:12:24.554Z,16.49
2022-09-18T07:14:54.519Z,16.49
2022-09-18T07:17:26.169Z,16.47
2022-09-18T07:19:56.203Z,16.46
2022-09-18T07:22:32.310Z,16.29
2022-09-18T07:24:59.801Z,16.21
2022-09-18T07:27:29.692Z,16.33
2022-09-18T07:29:57.897Z,16.33
2022-09-18T07:32:26.501Z,16.16
2022-09-18T07:34:57.427Z,16.33
2022-09-18T07:37:30.158Z,16.30
2022-09-18T07:40:18.030Z,16.43
2022-09-18T07:43:09.711Z,16.34
2022-09-18T07:45:45.289Z,16.53
2022-09-18T07:48:13.821Z,16.49
2022-09-18T07:50:46.696Z,16.51
2022-09-18T07:53:17.585Z,16.37
2022-09-18T07:55:48.138Z,16.41
2022-09-18T07:58:18.874Z,16.61
2022-09-18T08:00:55.204Z,16.52
2022-09-18T08:03:25.560Z,16.84
2022-09-18T08:05:58.867Z,17.12
2022-09-18T08:08:26.490Z,17.15
2022-09-18T08:11:12.734Z,17.51
2022-09-18T08:14:07.952Z,17.29
2022-09-18T08:16:53.765Z,16.99
2022-09-18T08:19:44.307Z,16.77
2022-09-18T08:22:24.029Z,16.77
2022-09-18T08:24:55.586Z,16.90
2022-09-18T08:27:23.151Z,16.83
2022-09-18T08:29:52.098Z,16.73
2022-09-18T08:32:19.579Z,16.54
2022-09-18T08:34:49.366Z,16.43
2022-09-18T08:37:16.964Z,16.75
2022-09-18T08:40:11.084Z,16.57
2022-09-18T08:43:39.878Z,16.69
2022-09-18T08:46:15.756Z,16.74
2022-09-18T08:49:20.971Z,16.60
2022-09-18T08:52:11.205Z,16.83
2022-09-18T08:55:20.325Z,16.94
2022-09-18T08:58:13.101Z,17.05
2022-09-18T09:00:51.360Z,17.18
2022-09-18T09:04:06.942Z,16.97
2022-09-18T09:06:43.605Z,17.15
2022-09-18T09:09:47.473Z,17.16
2022-09-18T09:12:41.178Z,17.25
2022-09-18T09:15:16.130Z,17.55
2022-09-18T09:18:19.242Z,17.84
2022-09-18T09:20:55.706Z,17.87
2022-09-18T09:24:09.771Z,17.70
2022-09-18T09:27:34.340Z,17.68
2022-09-18T09:30:26.167Z,17.81
2022-09-18T09:33:27.940Z,18.24
2022-09-18T09:36:17.589Z,18.11
2022-09-18T09:39:28.059Z,18.12
2022-09-18T09:42:11.897Z,18.54
2022-09-18T09:44:55.432Z,18.83
2022-09-18T09:47:46.252Z,19.03
2022-09-18T09:50:53.136Z,19.46
2022-09-18T09:53:46.878Z,19.82
2022-09-18T09:56:34.815Z,19.99
2022-09-18T09:59:43.301Z,20.16
2022-09-18T10:02:31.523Z,20.00
2022-09-18T10:05:39.589Z,20.11
2022-09-18T10:08:17.618Z,20.29
2022-09-18T10:10:57.741Z,20.48
2022-09-18T10:13:30.237Z,20.62
2022-09-18T10:16:12.318Z,20.74
2022-09-18T10:18:48.386Z,20.89
2022-09-18T10:21:42.216Z,21.08
2022-09-18T10:24:50.582Z,21.19
2022-09-18T10:27:20.081Z,20.98
2022-09-18T10:29:47.677Z,20.83
2022-09-18T10:41:41.412Z,20.89
2022-09-18T10:44:19.806Z,20.76
2022-09-18T10:47:09.356Z,20.52
2022-09-18T10:50:19.395Z,20.56
2022-09-18T10:52:54.019Z,20.85
2022-09-18T10:55:31.400Z,21.18
2022-09-18T10:58:13.819Z,21.41
2022-09-18T11:00:58.943Z,21.44
2022-09-18T11:03:58.114Z,21.25
2022-09-18T11:06:32.231Z,21.15
2022-09-18T11:09:11.282Z,21.27
2022-09-18T11:11:51.417Z,21.42
2022-09-18T11:14:39.691Z,21.46
2022-09-18T11:17:38.894Z,21.46
2022-09-18T11:20:08.427Z,21.72
2022-09-18T11:22:50.719Z,22.02
2022-09-18T11:34:53.131Z,22.31
2022-09-18T11:37:37.942Z,22.51
2022-09-18T11:40:15.880Z,22.54
2022-09-18T11:42:48.481Z,22.49
2022-09-18T11:46:03.088Z,22.37
2022-09-18T11:48:48.024Z,22.37
2022-09-18T11:51:29.801Z,22.16
2022-09-18T11:54:10.568Z,22.29
2022-09-18T11:56:48.586Z,22.47
2022-09-18T11:59:44.849Z,22.40
2022-09-18T12:02:39.766Z,22.49
2022-09-18T12:05:32.783Z,22.63
2022-09-18T12:08:19.278Z,22.75
2022-09-18T12:11:18.443Z,22.53
2022-09-18T12:14:21.703Z,22.78
2022-09-18T12:17:38.277Z,22.50
2022-09-18T12:20:22.435Z,22.37
2022-09-18T12:22:56.535Z,22.68
2022-09-18T12:25:54.728Z,22.70
2022-09-18T12:29:08.942Z,22.48
2022-09-18T12:32:06.897Z,22.60
2022-09-18T12:35:21.684Z,22.85
2022-09-18T12:38:35.355Z,22.72
2022-09-18T12:41:38.699Z,23.05
2022-09-18T12:44:34.104Z,23.10
2022-09-18T12:47:25.917Z,22.96
2022-09-18T12:50:40.123Z,23.32
2022-09-18T12:53:33.483Z,23.39
2022-09-18T12:56:27.020Z,23.19
2022-09-18T12:59:20.792Z,23.30
2022-09-18T13:02:11.365Z,23.31
2022-09-18T13:04:51.445Z,23.47
2022-09-18T13:07:50.702Z,23.42
2022-09-18T13:10:38.108Z,23.26
2022-09-18T13:13:47.897Z,23.21
2022-09-18T13:16:34.443Z,23.13
2022-09-18T13:19:15.274Z,23.17
2022-09-18T13:21:45.452Z,23.43
2022-09-18T13:24:26.756Z,23.60
2022-09-18T13:26:55.928Z,23.70
2022-09-18T13:29:56.758Z,23.70
2022-09-18T13:32:37.371Z,24.10
2022-09-18T13:35:19.601Z,24.38
2022-09-18T13:37:48.864Z,24.48
2022-09-18T13:40:36.061Z,24.64
2022-09-18T13:43:27.802Z,24.66
2022-09-18T13:45:58.009Z,24.90
2022-09-18T13:48:44.799Z,24.99
2022-09-18T13:51:31.113Z,25.05
2022-09-18T13:54:28.129Z,24.66
2022-09-18T13:57:09.547Z,24.77
2022-09-18T14:00:02.477Z,24.89
2022-09-18T14:02:51.874Z,24.98
2022-09-18T14:05:43.159Z,24.81
2022-09-18T14:08:19.870Z,24.87
2022-09-18T14:11:15.145Z,24.60
2022-09-18T14:13:54.389Z,24.37
2022-09-18T14:16:24.071Z,24.71
2022-09-18T14:19:07.213Z,24.58
2022-09-18T14:21:42.549Z,24.44
2022-09-18T14:24:43.009Z,24.75
2022-09-18T14:27:36.410Z,24.61
2022-09-18T14:30:39.322Z,24.82
2022-09-18T14:33:19.119Z,24.68
2022-09-18T14:36:00.302Z,24.78
2022-09-18T14:38:40.128Z,24.98
2022-09-18T14:41:26.403Z,25.11
2022-09-18T14:44:00.308Z,24.99
2022-09-18T14:46:33.681Z,25.26
2022-09-18T14:49:03.068Z,24.97
2022-09-18T14:51:49.312Z,25.04
2022-09-18T14:54:27.204Z,24.77
2022-09-18T14:57:26.748Z,25.10
2022-09-18T14:59:58.420Z,24.73
2022-09-18T15:02:34.291Z,24.40
2022-09-18T15:05:11.606Z,23.83
2022-09-18T15:07:40.150Z,23.69
2022-09-18T15:10:10.968Z,23.75
2022-09-18T15:12:43.329Z,23.38
2022-09-18T15:15:40.517Z,23.13
2022-09-18T15:18:31.354Z,23.51
2022-09-18T15:21:03.386Z,23.30
2022-09-18T15:23:40.588Z,22.75
2022-09-18T15:26:17.147Z,22.60
2022-09-18T15:28:49.875Z,22.34
2022-09-18T15:31:22.155Z,22.14
2022-09-18T15:34:15.592Z,22.02
2022-09-18T15:36:44.792Z,21.28
2022-09-18T15:39:38.130Z,20.86
2022-09-18T15:42:33.032Z,20.61
2022-09-18T15:45:07.282Z,20.19
2022-09-18T15:47:41.940Z,20.00
2022-09-18T15:50:15.385Z,19.95
2022-09-18T15:52:48.269Z,19.51
2022-09-18T15:55:23.384Z,19.49
2022-09-18T15:57:57.350Z,19.44
2022-09-18T16:00:35.355Z,19.24
2022-09-18T16:03:31.458Z,19.03
2022-09-18T16:06:05.307Z,19.06
2022-09-18T16:08:37.592Z,19.04
2022-09-18T16:11:07.279Z,18.82
2022-09-18T16:13:39.373Z,18.71
2022-09-18T16:16:16.882Z,18.69
2022-09-18T16:19:09.706Z,18.55
2022-09-18T16:21:45.110Z,18.44
2022-09-18T16:24:31.929Z,18.44
2022-09-18T16:27:07.260Z,18.47
2022-09-18T16:29:35.715Z,18.23
2022-09-18T16:32:03.407Z,18.20
2022-09-18T16:34:30.866Z,18.23
2022-09-18T16:36:58.429Z,18.06
2022-09-18T16:39:27.709Z,18.17
2022-09-18T16:41:55.415Z,18.07
2022-09-18T16:44:24.994Z,18.02
2022-09-18T16:46:59.689Z,17.95
2022-09-18T16:49:32.080Z,17.86
2022-09-18T16:51:59.680Z,17.95
2022-09-18T16:54:28.870Z,17.86
2022-09-18T16:57:12.271Z,17.67
2022-09-18T16:59:43.456Z,18.01
2022-09-18T17:02:14.933Z,17.75
2022-09-18T17:04:43.226Z,17.79
2022-09-18T17:07:10.749Z,17.66
2022-09-18T17:09:38.348Z,17.74
2022-09-18T17:12:06.264Z,17.59
2022-09-18T17:14:34.822Z,17.57
2022-09-18T17:17:04.238Z,17.38
2022-09-18T17:19:34.502Z,17.30
2022-09-18T17:22:01.933Z,17.12
2022-09-18T17:24:29.364Z,17.05
2022-09-18T17:27:01.324Z,17.16
2022-09-18T17:29:29.656Z,16.88
2022-09-18T17:31:57.449Z,16.86
2022-09-18T17:34:25.311Z,16.66
2022-09-18T17:36:52.826Z,16.44
2022-09-18T17:39:20.506Z,16.35
2022-09-18T17:41:48.283Z,16.42
2022-09-18T17:44:16.210Z,16.40
2022-09-18T17:46:45.398Z,16.50
2022-09-18T17:49:13.056Z,16.63
2022-09-18T17:51:40.546Z,16.44
2022-09-18T17:54:10.351Z,16.48
2022-09-18T17:56:38.047Z,16.37
2022-09-18T17:59:11.396Z,16.39
2022-09-18T18:01:47.229Z,16.43
2022-09-18T18:04:15.632Z,16.24
2022-09-18T18:06:46.593Z,16.31
2022-09-18T18:09:16.411Z,16.18
2022-09-18T18:11:46.235Z,16.70
2022-09-18T18:14:14.627Z,16.58
2022-09-18T18:16:42.285Z,16.42
2022-09-18T18:19:12.904Z,16.34
2022-09-18T18:21:45.070Z,16.42
2022-09-18T18:24:17.407Z,16.49
2022-09-18T18:26:47.247Z,16.40
2022-09-18T18:29:18.608Z,16.28
2022-09-18T18:31:48.054Z,15.96
2022-09-18T18:34:22.359Z,15.79
2022-09-18T18:36:53.890Z,15.68
2022-09-18T18:39:21.640Z,15.50
2022-09-18T18:41:49.835Z,15.33
2022-09-18T18:44:17.465Z,15.26
2022-09-18T18:46:47.176Z,15.20
2022-09-18T18:49:17.179Z,15.21
2022-09-18T18:51:48.059Z,15.33
2022-09-18T18:54:19.601Z,15.28
2022-09-18T18:56:48.176Z,15.00
2022-09-18T18:59:18.893Z,14.99
2022-09-18T19:01:47.737Z,15.10
2022-09-18T19:04:19.390Z,15.11
2022-09-18T19:06:51.199Z,15.30
2022-09-18T19:09:22.858Z,15.17
2022-09-18T19:11:53.013Z,14.94
2022-09-18T19:14:29.207Z,15.42
2022-09-18T19:16:58.662Z,15.28
2022-09-18T19:19:29.302Z,15.02
2022-09-18T19:22:00.724Z,15.00
2022-09-18T19:24:30.484Z,14.99
2022-09-18T19:26:59.125Z,15.21
2022-09-18T19:29:29.385Z,15.11
2022-09-18T19:31:57.913Z,15.13
2022-09-18T19:34:25.741Z,15.14
2022-09-18T19:36:53.657Z,15.29
2022-09-18T19:39:24.043Z,15.39
2022-09-18T19:42:00.374Z,15.30
2022-09-18T19:44:41.880Z,15.09
2022-09-18T19:47:26.167Z,15.10
2022-09-18T19:49:55.424Z,15.11
2022-09-18T19:52:28.682Z,15.29
2022-09-18T19:54:58.173Z,15.48
2022-09-18T19:57:28.641Z,15.30
2022-09-18T19:59:57.338Z,15.44
2022-09-18T20:02:26.869Z,15.23
2022-09-18T20:04:55.534Z,15.15
2022-09-18T20:07:23.036Z,14.89
2022-09-18T20:09:51.340Z,14.86
2022-09-18T20:12:19.198Z,14.98
2022-09-18T20:14:46.722Z,14.89
2022-09-18T20:17:14.269Z,14.61
2022-09-18T20:19:42.102Z,14.80
2022-09-18T20:22:09.587Z,15.07
2022-09-18T20:24:37.481Z,14.97
2022-09-18T20:27:05.252Z,14.81
2022-09-18T20:29:34.031Z,14.95
2022-09-18T20:32:02.837Z,15.05
2022-09-18T20:34:30.359Z,14.92
2022-09-18T20:36:57.910Z,14.92
2022-09-18T20:39:25.373Z,14.87
2022-09-18T20:41:52.865Z,14.79
2022-09-18T20:44:21.967Z,14.94
2022-09-18T20:46:50.500Z,14.64
2022-09-18T20:49:18.072Z,14.11
2022-09-18T20:51:46.124Z,14.17
2022-09-18T20:54:14.981Z,14.01
2022-09-18T20:56:44.727Z,13.95
2022-09-18T20:59:16.468Z,13.84
2022-09-18T21:01:46.116Z,13.76
2022-09-18T21:04:17.635Z,13.94
2022-09-18T21:06:49.159Z,13.85
2022-09-18T21:09:16.628Z,13.77
2022-09-18T21:11:45.125Z,13.80
2022-09-18T21:14:18.102Z,13.67
2022-09-18T21:16:48.975Z,13.93
2022-09-18T21:19:19.334Z,13.87
2022-09-18T21:21:50.076Z,13.82
2022-09-18T21:24:18.132Z,13.70
2022-09-18T21:26:49.915Z,13.52
2022-09-18T21:29:20.910Z,13.63
2022-09-18T21:31:51.998Z,13.45
2022-09-18T21:34:30.074Z,13.44
2022-09-18T21:37:01.587Z,13.50
2022-09-18T21:39:30.667Z,13.41
2022-09-18T21:42:00.793Z,13.41
2022-09-18T21:44:31.796Z,13.36
2022-09-18T21:47:10.716Z,13.35
2022-09-18T21:49:38.237Z,13.36
2022-09-18T21:52:08.096Z,13.23
2022-09-18T21:54:35.977Z,13.24
2022-09-18T21:57:04.535Z,13.60
2022-09-18T21:59:35.477Z,13.45
2022-09-18T22:02:03.192Z,13.22
2022-09-18T22:04:32.851Z,13.23
2022-09-18T22:07:04.046Z,13.21
2022-09-18T22:09:39.038Z,13.36
2022-09-18T22:12:07.835Z,13.29
2022-09-18T22:14:38.292Z,13.20
2022-09-18T22:17:10.240Z,13.35
2022-09-18T22:19:41.311Z,13.31
2022-09-18T22:22:10.835Z,13.31
2022-09-18T22:24:38.831Z,13.45
2022-09-18T22:27:10.256Z,13.31
2022-09-18T22:29:39.567Z,13.33
2022-09-18T22:32:10.160Z,13.18
2022-09-18T22:34:38.214Z,13.24
2022-09-18T22:37:06.188Z,13.29
2022-09-18T22:39:33.642Z,13.24
2022-09-18T22:42:01.894Z,13.03
2022-09-18T22:44:31.459Z,13.02
2022-09-18T22:46:58.978Z,12.83
2022-09-18T22:49:26.486Z,12.88
2022-09-18T22:51:54.615Z,12.86
2022-09-18T22:54:28.244Z,12.78
2022-09-18T22:56:56.900Z,12.88
2022-09-18T22:59:28.202Z,12.76
2022-09-18T23:02:03.839Z,12.80
2022-09-18T23:04:33.666Z,12.81
2022-09-18T23:07:03.777Z,12.63
2022-09-18T23:09:31.866Z,12.70
2022-09-18T23:12:00.008Z,12.68
2022-09-18T23:14:31.135Z,12.63
2022-09-18T23:17:00.240Z,12.52
2022-09-18T23:19:32.653Z,12.69
2022-09-18T23:22:00.706Z,12.77
2022-09-18T23:24:28.762Z,12.52
2022-09-18T23:26:58.271Z,12.57
2022-09-18T23:29:27.428Z,12.62
2022-09-18T23:31:59.295Z,12.52
2022-09-18T23:34:33.829Z,12.48
2022-09-18T23:37:02.636Z,12.45
2022-09-18T23:39:33.889Z,12.66
2022-09-18T23:42:03.747Z,12.60
2022-09-18T23:44:33.102Z,12.70
2022-09-18T23:47:03.718Z,12.70
2022-09-18T23:49:32.043Z,12.50
2022-09-18T23:51:59.937Z,12.21
2022-09-18T23:54:32.154Z,12.34
2022-09-18T23:56:59.596Z,12.41
2022-09-18T23:59:28.102Z,12.34
